Atlanta (ATL/KATL)

Information

Location
Atlanta, GA
Local Time
18:24 / 6:24 pm
GMT Time
22:24 / 10:24 pm
Gates
Unassigned
No FAA reported delays
METAR KATL 272152Z 23008KT 10SM FEW045 SCT100 BKN200 BKN250 24/13 A2996 RMK AO2 SLP138 ACC VC E CB DSNT NE & SE T02440128
TAF KATL 272135Z 2722/2824 22010KT P6SM VCSH SCT050 TEMPO 2800/2803 4SM -TSRA BKN045CB FM280500 20005KT P6SM VCSH BKN035 FM281000 22005KT P6SM OVC012 FM281200 21003KT 6SM BR OVC008 FM281600 25008KT P6SM BKN040
  • No charts available